Terminal Aerodrome Forecast
Issued by NWS

Home | Current Version | Previous Version | Graphics & Text | Print | Product List | Glossary On
Versions: 1 2 3 4 5 6 7 8 9 10 11 12 13
000
FTUS45 KGGW 251121
TAFGDV
TAF
KGDV 251121Z 2512/2612 36011KT P6SM SHRA OVC040
     FM251400 36010KT P6SM SHRA OVC020
     FM252100 33011KT P6SM -SHRA BKN050
     FM260000 33009KT P6SM SCT120
     FM260600 29006KT P6SM SCT070
      AMD LTD TO CLD VIS AND WIND=

USA.gov is the U.S. government's official web portal to all federal, state and local government web resources and services.